Time;durP1;ratioP1;P1;durP2;ratioP2;P2;SDS_P1;SDS_P2;PMS_P1;PMS_P2;Temp;Humidity;BMP_temperature;BMP_pressure;BME280_temperature;BME280_humidity;BME280_pressure;Samples;Min_cycle;Max_cycle;Signal;HPM_P1;HPM_P2
2022/08/04 00:00:17;;;;;;;;;;;20.50;99.90;;;;;;5079224;28;20115;-74
2022/08/04 00:02:52;;;;;;;12.90;3.28;;;20.40;99.90;;;;;;5101312;28;20018;-74
2022/08/04 00:05:36;;;;;;;8.82;3.05;;;20.40;99.90;;;;;;5101410;28;20047;-74
2022/08/04 00:08:05;;;;;;;17.67;3.70;;;20.40;99.90;;;;;;5102369;28;20079;-75
2022/08/04 00:10:35;;;;;;;9.82;3.17;;;20.40;99.90;;;;;;5086723;28;20533;-74
2022/08/04 00:13:03;;;;;;;9.63;3.22;;;20.40;99.90;;;;;;5086849;28;20040;-75
2022/08/04 00:15:31;;;;;;;16.40;3.92;;;20.30;99.90;;;;;;5103082;28;20043;-72
2022/08/04 00:18:01;;;;;;;13.20;3.90;;;20.40;99.90;;;;;;5104428;28;20391;-74
2022/08/04 00:20:38;;;;;;;17.00;3.30;;;20.40;99.90;;;;;;5101930;28;20097;-75
2022/08/04 00:23:05;;;;;;;16.73;4.20;;;20.40;99.90;;;;;;5080431;28;20464;-75
2022/08/04 00:25:33;;;;;;;16.45;4.20;;;20.30;99.90;;;;;;5086243;28;20394;-74
2022/08/04 00:28:00;;;;;;;14.48;4.20;;;20.30;99.90;;;;;;5093986;28;20027;-73
2022/08/04 00:30:26;;;;;;;18.50;4.20;;;20.30;99.90;;;;;;5096086;28;20550;-75
2022/08/04 00:32:54;;;;;;;17.45;3.97;;;20.40;99.90;;;;;;5101506;28;20031;-74
2022/08/04 00:35:20;;;;;;;11.80;3.60;;;20.40;99.90;;;;;;5098534;28;20050;-73
2022/08/04 00:37:46;;;;;;;12.18;3.65;;;20.40;99.90;;;;;;5097803;28;20040;-74
2022/08/04 00:40:20;;;;;;;10.23;3.70;;;20.40;99.90;;;;;;5083394;28;20052;-74
2022/08/04 00:42:53;;;;;;;13.32;4.03;;;20.40;99.90;;;;;;5100748;28;20040;-75
2022/08/04 00:45:34;;;;;;;17.40;4.07;;;20.40;99.90;;;;;;5081510;28;20036;-75
2022/08/04 00:48:28;;;;;;;17.23;4.05;;;20.40;99.90;;;;;;5077877;28;20055;-75
2022/08/04 00:51:20;;;;;;;15.85;3.80;;;20.50;99.90;;;;;;5070101;28;20123;-74
2022/08/04 00:54:05;;;;;;;15.52;4.18;;;20.50;99.90;;;;;;5097730;28;20051;-75
2022/08/04 00:56:44;;;;;;;15.90;4.07;;;20.50;99.90;;;;;;5098458;28;20089;-76
2022/08/04 00:59:35;;;;;;;14.45;4.00;;;20.40;99.90;;;;;;5080195;28;20453;-73
2022/08/04 01:02:16;;;;;;;10.95;3.78;;;20.40;99.90;;;;;;5100631;28;20043;-75
2022/08/04 01:05:05;;;;;;;13.38;4.15;;;20.40;99.90;;;;;;5100235;28;20031;-73
2022/08/04 01:07:58;;;;;;;14.32;3.90;;;20.40;99.90;;;;;;5070583;28;20135;-76
2022/08/04 01:10:27;;;;;;;12.43;3.85;;;20.40;99.90;;;;;;5057321;28;20821;-73
2022/08/04 01:13:25;;;;;;;11.00;3.95;;;20.40;99.90;;;;;;5079924;28;20043;-74
2022/08/04 01:16:01;;;;;;;11.77;3.63;;;20.30;99.90;;;;;;5084004;28;20119;-75
2022/08/04 01:18:33;;;;;;;11.85;4.13;;;20.30;99.90;;;;;;5085826;28;20132;-76
2022/08/04 01:21:14;;;;;;;13.75;4.07;;;20.20;99.90;;;;;;5079397;28;20039;-74
2022/08/04 01:24:21;;;;;;;13.65;4.32;;;20.20;99.90;;;;;;5082283;28;20045;-75
2022/08/04 01:27:04;;;;;;;12.18;4.18;;;20.20;99.90;;;;;;5008719;28;20135;-73
2022/08/04 01:29:35;;;;;;;17.23;5.10;;;20.20;99.90;;;;;;5007470;28;20106;-74
2022/08/04 01:32:10;;;;;;;13.88;4.38;;;20.20;99.90;;;;;;4992421;28;20057;-75
2022/08/04 01:34:50;;;;;;;13.50;4.30;;;20.20;99.90;;;;;;4990501;28;20046;-74
2022/08/04 01:37:43;;;;;;;16.48;4.50;;;20.20;99.90;;;;;;4994101;28;20064;-74
2022/08/04 01:40:13;;;;;;;24.08;4.60;;;20.20;99.90;;;;;;5005491;28;20038;-75
2022/08/04 01:42:41;;;;;;;13.57;4.57;;;20.20;99.90;;;;;;5008112;28;20083;-74
2022/08/04 01:45:11;;;;;;;13.65;4.80;;;20.10;99.90;;;;;;4999054;28;20053;-74
2022/08/04 01:47:42;;;;;;;20.27;5.38;;;20.10;99.90;;;;;;5002608;28;20053;-74
2022/08/04 01:50:10;;;;;;;13.00;4.47;;;20.10;99.90;;;;;;5015352;28;20069;-74
2022/08/04 01:52:38;;;;;;;19.75;5.13;;;20.10;99.90;;;;;;5000288;28;20124;-76
2022/08/04 01:55:09;;;;;;;16.52;5.00;;;20.10;99.90;;;;;;5000919;28;20048;-74
2022/08/04 01:57:46;;;;;;;18.83;5.32;;;20.10;99.90;;;;;;5007295;28;20103;-74
2022/08/04 02:00:15;;;;;;;20.08;5.13;;;20.10;99.90;;;;;;5005777;28;20049;-74
2022/08/04 02:02:41;;;;;;;18.42;5.03;;;20.10;99.90;;;;;;5009927;28;20424;-76
2022/08/04 02:05:26;;;;;;;25.60;6.10;;;20.10;99.90;;;;;;5065574;28;20139;-75
2022/08/04 02:08:04;;;;;;;13.40;5.32;;;20.10;99.90;;;;;;5076852;28;20050;-73
2022/08/04 02:10:41;;;;;;;16.42;5.00;;;20.10;99.90;;;;;;5083382;28;20108;-74
2022/08/04 02:13:34;;;;;;;18.25;5.40;;;20.10;99.90;;;;;;5106512;28;20031;-75
2022/08/04 02:16:15;;;;;;;15.43;5.65;;;20.10;99.90;;;;;;5100921;28;20036;-73
2022/08/04 02:19:00;;;;;;;22.42;6.07;;;20.00;99.90;;;;;;5108633;28;20035;-75
2022/08/04 02:21:28;;;;;;;17.70;5.53;;;20.00;99.90;;;;;;5095164;28;20048;-76
2022/08/04 02:24:04;;;;;;;16.73;5.25;;;20.00;99.90;;;;;;5104305;28;20081;-75
2022/08/04 02:26:32;;;;;;;19.38;6.18;;;20.00;99.90;;;;;;5100797;28;20051;-73
2022/08/04 02:28:58;;;;;;;22.95;5.88;;;20.00;99.90;;;;;;5080830;28;20093;-73
2022/08/04 02:31:32;;;;;;;15.15;5.53;;;20.00;99.90;;;;;;5103411;28;20035;-75
2022/08/04 02:34:25;;;;;;;17.15;5.50;;;20.10;99.90;;;;;;5087713;28;20035;-73
2022/08/04 02:36:52;;;;;;;13.75;5.35;;;20.00;99.90;;;;;;5099735;28;20044;-75
2022/08/04 02:39:21;;;;;;;17.92;5.45;;;20.00;99.90;;;;;;5116044;28;20096;-73
2022/08/04 02:41:48;;;;;;;19.10;5.45;;;20.00;99.90;;;;;;5118916;28;20035;-72
2022/08/04 02:44:19;;;;;;;21.45;5.50;;;20.00;99.90;;;;;;5121787;28;20036;-73
2022/08/04 02:46:47;;;;;;;20.00;5.47;;;20.00;99.90;;;;;;5120318;28;20031;-76
2022/08/04 02:49:14;;;;;;;17.67;5.65;;;20.00;99.90;;;;;;5123782;28;20058;-72
2022/08/04 02:51:43;;;;;;;19.88;6.07;;;20.00;99.90;;;;;;5121557;28;20102;-72
2022/08/04 02:54:09;;;;;;;14.90;5.07;;;20.00;99.90;;;;;;5119678;28;20043;-74
2022/08/04 02:56:36;;;;;;;14.82;5.38;;;20.00;99.90;;;;;;5106752;28;20126;-75
2022/08/04 02:59:08;;;;;;;23.85;5.65;;;20.00;99.90;;;;;;5109099;28;20066;-74
2022/08/04 03:01:34;;;;;;;13.60;5.30;;;20.00;99.90;;;;;;5104834;28;20401;-74
2022/08/04 03:04:00;;;;;;;14.57;5.70;;;20.00;99.90;;;;;;5103999;28;20031;-75
2022/08/04 03:06:31;;;;;;;18.65;5.10;;;19.90;99.90;;;;;;5081006;27;21573;-73
2022/08/04 03:09:27;;;;;;;14.30;5.15;;;19.90;99.90;;;;;;5104476;27;20039;-75
2022/08/04 03:12:23;;;;;;;22.70;6.03;;;19.80;99.90;;;;;;5104607;27;20038;-73
2022/08/04 03:15:21;;;;;;;15.77;5.13;;;19.80;99.90;;;;;;5105020;27;20481;-74
2022/08/04 03:18:05;;;;;;;12.90;4.85;;;19.80;99.90;;;;;;5106771;27;20455;-74
2022/08/04 03:20:43;;;;;;;15.57;5.30;;;19.70;99.90;;;;;;5126286;27;20050;-74
2022/08/04 03:23:20;;;;;;;16.88;5.28;;;19.70;99.90;;;;;;5085265;27;20043;-73
2022/08/04 03:26:04;;;;;;;16.63;5.53;;;19.70;99.90;;;;;;5106339;27;20043;-74
2022/08/04 03:28:51;;;;;;;16.80;5.88;;;19.70;99.90;;;;;;5104994;27;20042;-75
2022/08/04 03:31:41;;;;;;;16.50;5.03;;;19.60;99.90;;;;;;5083719;27;20543;-74
2022/08/04 03:34:19;;;;;;;16.02;5.22;;;19.60;99.90;;;;;;5105320;27;20454;-74
2022/08/04 03:37:05;;;;;;;15.32;5.22;;;19.50;99.90;;;;;;5103258;27;20039;-75
2022/08/04 03:39:43;;;;;;;14.48;4.88;;;19.50;99.90;;;;;;5082404;27;20380;-74
2022/08/04 03:42:39;;;;;;;11.45;5.10;;;19.40;99.90;;;;;;5101982;27;20479;-73
2022/08/04 03:45:26;;;;;;;10.73;4.90;;;19.40;99.90;;;;;;5117945;27;20122;-76
2022/08/04 03:48:19;;;;;;;15.30;5.45;;;19.40;99.90;;;;;;5113661;27;20103;-72
2022/08/04 03:54:19;;;;;;;10.43;4.93;;;19.40;99.90;;;;;;5093400;28;20075;-75
2022/08/04 03:57:34;;;;;;;17.13;5.43;;;19.40;99.90;;;;;;5091888;27;20043;-74
2022/08/04 04:00:18;;;;;;;14.48;4.88;;;19.40;99.90;;;;;;5030521;28;20088;-75
2022/08/04 04:03:09;;;;;;;14.10;5.18;;;19.40;99.90;;;;;;5017737;28;20064;-73
2022/08/04 04:05:40;;;;;;;11.02;5.10;;;19.40;99.90;;;;;;5012600;28;20045;-75
2022/08/04 04:08:11;;;;;;;18.55;4.90;;;19.40;99.90;;;;;;5016635;28;20097;-75
2022/08/04 04:11:01;;;;;;;18.33;5.03;;;19.40;99.90;;;;;;5030236;28;20130;-74
2022/08/04 04:13:48;;;;;;;22.10;5.65;;;19.40;99.90;;;;;;5031749;28;20036;-73
2022/08/04 04:16:31;;;;;;;19.75;5.40;;;19.40;99.90;;;;;;5033581;28;20087;-75
2022/08/04 04:19:03;;;;;;;12.07;5.07;;;19.40;99.90;;;;;;5034736;28;20077;-73
2022/08/04 04:21:47;;;;;;;19.65;5.00;;;19.40;99.90;;;;;;5029884;28;20273;-73
2022/08/04 04:24:38;;;;;;;14.55;5.20;;;19.50;99.90;;;;;;5047558;28;20383;-74
2022/08/04 04:27:04;;;;;;;12.90;4.85;;;19.50;99.90;;;;;;5013986;28;20040;-75
2022/08/04 04:29:51;;;;;;;20.02;5.13;;;19.50;99.90;;;;;;5031894;28;20087;-75
2022/08/04 04:32:40;;;;;;;16.23;5.32;;;19.60;99.90;;;;;;5028420;28;20037;-75
2022/08/04 04:35:39;;;;;;;21.40;6.93;;;19.60;99.90;;;;;;5031415;28;20496;-75
2022/08/04 04:38:13;;;;;;;14.05;5.60;;;19.70;99.90;;;;;;5092584;28;20550;-75
2022/08/04 04:41:00;;;;;;;20.92;6.53;;;19.70;99.90;;;;;;5097311;28;20198;-74
2022/08/04 04:44:13;;;;;;;16.95;6.25;;;19.80;99.90;;;;;;5102218;28;20035;-74
2022/08/04 04:46:58;;;;;;;15.32;5.97;;;19.90;99.90;;;;;;5107644;28;20043;-74
2022/08/04 04:49:39;;;;;;;22.48;6.90;;;20.00;99.90;;;;;;5113845;27;20047;-74
2022/08/04 04:52:23;;;;;;;20.77;6.97;;;20.00;99.90;;;;;;5116216;27;20035;-73
2022/08/04 04:55:18;;;;;;;19.10;5.30;;;20.10;99.90;;;;;;5096770;28;20044;-73
2022/08/04 04:57:45;;;;;;;24.98;6.15;;;20.20;99.90;;;;;;5094775;27;20071;-75
2022/08/04 05:00:12;;;;;;;26.80;6.30;;;20.40;99.90;;;;;;5101208;28;20041;-74
2022/08/04 05:03:08;;;;;;;25.00;6.78;;;20.60;99.90;;;;;;5107788;27;20450;-75
2022/08/04 05:05:37;;;;;;;26.77;6.95;;;20.80;99.90;;;;;;5098418;27;20059;-73
2022/08/04 05:08:48;;;;;;;28.40;6.70;;;20.80;99.90;;;;;;5085881;27;20122;-74
2022/08/04 05:11:32;;;;;;;23.90;5.95;;;21.00;99.90;;;;;;5031613;28;20066;-74
2022/08/04 05:14:06;;;;;;;18.10;6.07;;;21.10;99.90;;;;;;5031631;28;20080;-76
2022/08/04 05:16:46;;;;;;;16.50;6.20;;;21.20;99.90;;;;;;5032371;28;20060;-76
2022/08/04 05:19:36;;;;;;;16.92;5.95;;;21.30;99.90;;;;;;5014952;28;20039;-76
2022/08/04 05:22:26;;;;;;;21.90;6.07;;;21.30;99.90;;;;;;5044776;28;20068;-74
2022/08/04 05:25:00;;;;;;;18.55;6.38;;;21.40;99.90;;;;;;5016563;28;20037;-75
2022/08/04 05:27:35;;;;;;;15.10;5.97;;;21.50;99.90;;;;;;5027271;28;20049;-74
2022/08/04 05:30:04;;;;;;;22.15;6.22;;;21.60;99.90;;;;;;5042389;28;20485;-75
2022/08/04 05:32:37;;;;;;;17.40;5.97;;;21.60;99.90;;;;;;5009802;28;20041;-75
2022/08/04 05:35:10;;;;;;;16.63;5.88;;;21.60;99.90;;;;;;5032883;28;20068;-74
2022/08/04 05:37:39;;;;;;;27.30;6.72;;;21.60;99.90;;;;;;5034408;28;20047;-75
2022/08/04 05:40:07;;;;;;;22.75;6.20;;;21.70;99.90;;;;;;5017514;28;20071;-75
2022/08/04 05:42:36;;;;;;;17.70;5.82;;;21.70;99.90;;;;;;5038894;28;20063;-75
2022/08/04 05:45:04;;;;;;;14.55;5.55;;;21.90;99.90;;;;;;5026213;28;20404;-76
2022/08/04 05:47:31;;;;;;;16.52;5.78;;;21.90;99.90;;;;;;5049464;27;20055;-75
2022/08/04 05:49:58;;;;;;;11.65;5.85;;;22.00;99.90;;;;;;5101484;27;20043;-75
2022/08/04 05:52:25;;;;;;;14.65;5.57;;;22.00;99.90;;;;;;5105213;27;20071;-75
2022/08/04 05:54:52;;;;;;;22.67;6.18;;;22.00;99.90;;;;;;5104477;27;20389;-75
2022/08/04 05:57:19;;;;;;;12.55;5.88;;;22.10;99.90;;;;;;5101720;27;20046;-75
2022/08/04 05:59:45;;;;;;;24.38;5.60;;;22.10;99.90;;;;;;5097806;27;20130;-74
2022/08/04 06:02:14;;;;;;;24.02;5.53;;;22.30;99.90;;;;;;5099764;27;20039;-73
2022/08/04 06:04:42;;;;;;;14.77;6.18;;;22.60;99.90;;;;;;5104426;27;20121;-73
2022/08/04 06:07:10;;;;;;;14.25;6.13;;;22.60;99.90;;;;;;5082573;27;20399;-72
2022/08/04 06:09:36;;;;;;;13.98;5.60;;;22.60;99.90;;;;;;5083141;27;20096;-75
2022/08/04 06:12:16;;;;;;;15.45;5.65;;;22.60;99.90;;;;;;5104888;27;20055;-75
2022/08/04 06:14:46;;;;;;;18.63;5.60;;;22.70;99.90;;;;;;5104730;27;20069;-75
2022/08/04 06:17:16;;;;;;;20.70;5.68;;;22.80;99.90;;;;;;5099280;27;20062;-75
2022/08/04 06:19:43;;;;;;;21.00;6.03;;;22.90;99.90;;;;;;5098552;27;20063;-75
2022/08/04 06:22:11;;;;;;;12.05;5.40;;;23.10;99.90;;;;;;5093083;27;20491;-73
2022/08/04 06:24:38;;;;;;;18.92;5.75;;;23.20;99.90;;;;;;5107148;27;20071;-74
2022/08/04 06:27:05;;;;;;;15.35;5.53;;;23.20;99.90;;;;;;5102375;27;20174;-74
2022/08/04 06:29:37;;;;;;;15.25;5.97;;;23.30;99.90;;;;;;5086348;27;20047;-73
2022/08/04 06:32:25;;;;;;;16.58;5.32;;;23.40;99.90;;;;;;5103408;27;20066;-74
2022/08/04 06:34:57;;;;;;;14.48;5.80;;;23.50;99.90;;;;;;5098133;27;20058;-73
2022/08/04 06:37:24;;;;;;;13.27;5.47;;;23.60;99.90;;;;;;5124262;27;20416;-73
2022/08/04 06:39:52;;;;;;;15.98;5.93;;;23.70;99.90;;;;;;5104261;27;20158;-74
2022/08/04 06:42:20;;;;;;;23.80;5.72;;;23.70;99.90;;;;;;5085436;27;20047;-74
2022/08/04 06:44:49;;;;;;;15.85;5.60;;;23.80;99.90;;;;;;5082367;27;20047;-74
2022/08/04 06:47:18;;;;;;;17.73;5.65;;;23.90;99.90;;;;;;5099453;27;20150;-73
2022/08/04 06:49:46;;;;;;;18.90;5.32;;;23.90;99.90;;;;;;5100635;27;20050;-73
2022/08/04 06:52:16;;;;;;;13.88;5.60;;;24.00;99.90;;;;;;5083550;27;20065;-74
2022/08/04 06:54:52;;;;;;;493.50;48.00;;;24.00;99.90;;;;;;5103675;27;20112;-73
2022/08/04 06:57:25;;;;;;;44.28;9.02;;;24.10;99.90;;;;;;5105859;27;20409;-73
2022/08/04 07:00:00;;;;;;;43.42;8.07;;;24.20;99.90;;;;;;5106446;27;20058;-74
2022/08/04 07:02:28;;;;;;;14.77;4.63;;;24.20;99.90;;;;;;5079355;27;20058;-74
2022/08/04 07:04:55;;;;;;;13.40;4.82;;;24.30;99.90;;;;;;5114431;27;20065;-74
2022/08/04 07:07:23;;;;;;;15.02;4.40;;;24.40;99.90;;;;;;5097076;27;20051;-73
2022/08/04 07:09:50;;;;;;;12.02;4.68;;;24.50;99.90;;;;;;5098633;27;20054;-75
2022/08/04 07:12:20;;;;;;;16.02;4.70;;;24.60;99.90;;;;;;5075032;27;20470;-74
2022/08/04 07:14:47;;;;;;;16.02;4.70;;;24.80;99.90;;;;;;5078434;27;20070;-74
2022/08/04 07:17:17;;;;;;;19.33;4.40;;;24.90;99.90;;;;;;5096918;27;20061;-74
2022/08/04 07:19:43;;;;;;;10.98;4.30;;;25.00;99.90;;;;;;5099633;27;20099;-74
2022/08/04 07:22:10;;;;;;;13.35;4.03;;;25.20;99.90;;;;;;5078162;27;20047;-74
2022/08/04 07:24:36;;;;;;;15.52;4.72;;;25.30;99.90;;;;;;5101158;27;20055;-74
2022/08/04 07:27:03;;;;;;;12.35;4.45;;;25.40;99.90;;;;;;5098124;27;20054;-74
2022/08/04 07:29:29;;;;;;;13.40;3.78;;;25.60;99.90;;;;;;5100484;27;20031;-73
2022/08/04 07:31:57;;;;;;;14.73;4.20;;;25.70;99.90;;;;;;5078341;27;20459;-75
2022/08/04 07:34:24;;;;;;;14.82;3.85;;;25.70;99.90;;;;;;5098386;27;20533;-75
2022/08/04 07:36:52;;;;;;;14.38;3.55;;;25.80;99.90;;;;;;5095083;27;20047;-76
2022/08/04 07:39:18;;;;;;;17.88;4.05;;;25.80;99.90;;;;;;5103148;27;20104;-75
2022/08/04 07:41:44;;;;;;;12.30;3.60;;;25.80;99.90;;;;;;5098696;27;20043;-74
2022/08/04 07:44:14;;;;;;;13.80;3.35;;;25.90;99.90;;;;;;5079737;27;20119;-75
2022/08/04 07:46:40;;;;;;;13.88;3.88;;;25.90;99.90;;;;;;5083151;27;20493;-73
2022/08/04 07:49:07;;;;;;;12.60;3.50;;;26.00;99.90;;;;;;5101589;27;20071;-75
2022/08/04 07:51:35;;;;;;;11.40;3.25;;;25.90;99.90;;;;;;5081182;27;20039;-74
2022/08/04 07:54:02;;;;;;;14.35;3.60;;;26.00;99.90;;;;;;5081679;27;20039;-74
2022/08/04 07:56:30;;;;;;;12.65;3.47;;;26.00;99.90;;;;;;5103502;27;20070;-75
2022/08/04 07:58:55;;;;;;;10.63;3.17;;;26.00;99.90;;;;;;5083645;27;20108;-74
2022/08/04 08:01:23;;;;;;;12.60;3.85;;;26.10;99.90;;;;;;5104761;27;20039;-75
2022/08/04 08:03:51;;;;;;;14.88;4.10;;;26.10;99.90;;;;;;5102213;27;20060;-75
2022/08/04 08:06:17;;;;;;;12.68;4.22;;;26.20;99.90;;;;;;5084031;28;20043;-76
2022/08/04 08:08:42;;;;;;;14.07;4.28;;;26.30;99.90;;;;;;5122416;27;20127;-75
2022/08/04 08:11:09;;;;;;;16.23;5.00;;;26.20;99.90;;;;;;5086870;28;20046;-74
2022/08/04 08:13:36;;;;;;;12.10;5.50;;;26.20;99.90;;;;;;5106363;28;20080;-76
2022/08/04 08:16:02;;;;;;;11.77;5.50;;;26.20;99.90;;;;;;5088025;28;20043;-75
2022/08/04 08:18:29;;;;;;;13.82;5.38;;;26.20;99.90;;;;;;5091862;28;20101;-74
2022/08/04 08:20:56;;;;;;;15.48;5.40;;;26.10;99.90;;;;;;5103887;28;20140;-74
2022/08/04 08:23:21;;;;;;;14.73;4.97;;;26.10;99.90;;;;;;5086833;27;20485;-75
2022/08/04 08:25:47;;;;;;;16.38;5.15;;;26.10;99.90;;;;;;5090385;27;20044;-74
2022/08/04 08:28:15;;;;;;;17.23;5.70;;;26.00;99.90;;;;;;5106874;27;20157;-76
2022/08/04 08:30:40;;;;;;;11.77;5.20;;;25.90;99.90;;;;;;5091030;27;20114;-77
2022/08/04 08:33:09;;;;;;;10.18;4.90;;;25.90;99.90;;;;;;5110062;27;20577;-77
2022/08/04 08:36:11;;;;;;;14.18;5.45;;;25.90;99.90;;;;;;5088156;27;20055;-76
2022/08/04 08:38:55;;;;;;;13.82;5.40;;;25.90;99.90;;;;;;5117580;27;20129;-77
2022/08/04 08:41:30;;;;;;;22.00;6.38;;;26.00;99.90;;;;;;5096439;27;20478;-76
2022/08/04 08:44:32;;;;;;;18.40;5.75;;;26.10;99.90;;;;;;5115066;27;20047;-76
2022/08/04 08:47:18;;;;;;;23.27;5.57;;;26.10;99.90;;;;;;5093302;28;20074;-75
2022/08/04 08:50:21;;;;;;;10.13;4.88;;;26.10;99.90;;;;;;5105222;27;20041;-75
2022/08/04 08:53:10;;;;;;;14.07;5.13;;;26.20;99.90;;;;;;5096252;28;20083;-75
2022/08/04 08:56:03;;;;;;;19.90;4.80;;;26.30;99.90;;;;;;5097888;27;20126;-75
2022/08/04 08:58:53;;;;;;;14.80;4.80;;;26.20;99.90;;;;;;5114594;27;20047;-76
2022/08/04 09:01:56;;;;;;;14.90;5.40;;;26.30;99.90;;;;;;5116618;27;20431;-75
2022/08/04 09:04:34;;;;;;;13.07;5.50;;;26.20;99.90;;;;;;5088404;27;20055;-75
2022/08/04 09:07:24;;;;;;;13.77;6.28;;;26.00;99.90;;;;;;5105513;27;20119;-75
2022/08/04 09:10:16;;;;;;;17.83;6.35;;;25.90;99.90;;;;;;5101935;27;20079;-75
2022/08/04 09:13:04;;;;;;;27.55;7.22;;;25.90;99.90;;;;;;5102282;27;20386;-75
2022/08/04 09:15:38;;;;;;;22.63;6.40;;;25.90;99.90;;;;;;5108120;27;20084;-76
2022/08/04 09:18:20;;;;;;;23.20;6.53;;;25.90;99.90;;;;;;5105475;27;20058;-74
2022/08/04 09:21:13;;;;;;;18.23;5.72;;;26.10;99.90;;;;;;5107664;27;20109;-73
2022/08/04 09:24:02;;;;;;;22.42;6.47;;;26.20;99.90;;;;;;5102765;27;20059;-75
2022/08/04 09:26:56;;;;;;;20.23;6.20;;;26.10;99.90;;;;;;5106342;27;20094;-74
2022/08/04 09:29:54;;;;;;;18.00;5.32;;;26.20;99.90;;;;;;5125034;27;20146;-73
2022/08/04 09:32:27;;;;;;;16.95;5.53;;;26.20;99.90;;;;;;5115690;27;20108;-75
2022/08/04 09:35:25;;;;;;;10.98;5.43;;;26.20;99.90;;;;;;5086927;28;20367;-75
2022/08/04 09:38:12;;;;;;;19.77;5.28;;;26.20;99.90;;;;;;5097103;27;20486;-75
2022/08/04 09:40:47;;;;;;;14.18;5.05;;;26.30;99.90;;;;;;5085265;27;20039;-72
2022/08/04 09:43:44;;;;;;;11.57;4.63;;;26.50;99.90;;;;;;5083027;27;20039;-75
2022/08/04 09:46:14;;;;;;;14.73;4.70;;;26.50;99.90;;;;;;5103738;27;20880;-75
2022/08/04 09:48:55;;;;;;;22.77;4.13;;;26.60;99.90;;;;;;5110351;27;20423;-74
2022/08/04 09:51:40;;;;;;;9.60;3.45;;;26.80;99.90;;;;;;5109010;27;20452;-75
2022/08/04 09:54:47;;;;;;;7.80;3.10;;;27.00;99.90;;;;;;5087854;27;20095;-75
2022/08/04 09:57:26;;;;;;;17.88;3.15;;;26.90;99.90;;;;;;5064129;28;20168;-74
2022/08/04 10:00:02;;;;;;;10.23;2.95;;;26.90;99.90;;;;;;5040960;28;20158;-74
2022/08/04 10:02:49;;;;;;;6.90;2.53;;;26.80;99.90;;;;;;5057650;28;20116;-73
2022/08/04 10:05:25;;;;;;;5.32;2.25;;;26.80;99.90;;;;;;5047708;28;20048;-72
2022/08/04 10:08:10;;;;;;;15.02;2.38;;;27.10;99.90;;;;;;5050667;28;20071;-74
2022/08/04 10:10:44;;;;;;;8.57;1.75;;;27.40;99.90;;;;;;5049882;28;20040;-73
2022/08/04 10:13:37;;;;;;;11.88;2.20;;;27.70;99.90;;;;;;5027879;28;20427;-74
2022/08/04 10:16:24;;;;;;;10.10;2.17;;;28.00;99.90;;;;;;5054388;28;20057;-72
2022/08/04 10:19:05;;;;;;;10.25;2.40;;;27.70;99.90;;;;;;5047491;28;20056;-73
2022/08/04 10:21:37;;;;;;;14.85;2.75;;;27.60;99.90;;;;;;5052229;28;20045;-72
2022/08/04 10:24:43;;;;;;;10.10;2.15;;;27.70;99.90;;;;;;5043094;28;20071;-73
2022/08/04 10:27:19;;;;;;;13.38;2.45;;;28.00;99.90;;;;;;5032839;28;20040;-73
2022/08/04 10:29:46;;;;;;;9.52;2.33;;;28.30;99.90;;;;;;5049742;28;21370;-74
2022/08/04 10:32:26;;;;;;;12.20;2.15;;;28.50;99.90;;;;;;5045338;28;20594;-73
2022/08/04 10:35:15;;;;;;;14.38;2.35;;;28.70;99.90;;;;;;5099754;27;20050;-74
2022/08/04 10:37:49;;;;;;;8.60;2.30;;;28.70;99.90;;;;;;5103173;27;20416;-74
2022/08/04 10:40:44;;;;;;;12.43;2.35;;;28.50;99.90;;;;;;5103540;27;20047;-74
2022/08/04 10:43:34;;;;;;;12.63;2.10;;;28.40;99.90;;;;;;5109598;27;20051;-75
2022/08/04 10:46:22;;;;;;;11.25;2.35;;;28.60;99.90;;;;;;5108984;27;20373;-74
2022/08/04 10:48:49;;;;;;;8.45;2.28;;;28.60;99.90;;;;;;5082575;27;20039;-74
2022/08/04 10:51:39;;;;;;;12.00;2.75;;;28.60;99.90;;;;;;5083074;27;20116;-74
2022/08/04 10:54:30;;;;;;;8.75;2.80;;;28.60;99.90;;;;;;5086848;27;20348;-72
2022/08/04 10:57:22;;;;;;;12.65;2.50;;;28.40;99.90;;;;;;5111187;27;20047;-72
2022/08/04 11:00:03;;;;;;;12.52;2.70;;;28.30;99.90;;;;;;5044896;28;20108;-74
2022/08/04 11:02:33;;;;;;;10.68;2.67;;;28.30;99.90;;;;;;5005976;28;20053;-73
2022/08/04 11:05:18;;;;;;;6.55;1.98;;;28.50;99.90;;;;;;5026594;28;20195;-74
2022/08/04 11:08:01;;;;;;;11.75;2.38;;;28.60;99.90;;;;;;5044268;28;20116;-74
2022/08/04 11:10:31;;;;;;;5.75;1.85;;;28.60;99.90;;;;;;5025156;28;20036;-74
2022/08/04 11:13:03;;;;;;;12.68;1.92;;;28.80;99.90;;;;;;5028490;28;20088;-74
2022/08/04 11:15:48;;;;;;;6.80;1.50;;;28.80;99.90;;;;;;5024473;28;20057;-74
2022/08/04 11:18:28;;;;;;;4.85;1.30;;;28.70;99.90;;;;;;5027209;28;20150;-72
2022/08/04 11:21:01;;;;;;;9.98;1.70;;;28.80;99.90;;;;;;5028260;28;20126;-74
2022/08/04 11:23:35;;;;;;;6.38;1.60;;;28.90;99.90;;;;;;5027907;28;20053;-73
2022/08/04 11:26:07;;;;;;;3.40;1.10;;;28.80;99.90;;;;;;5029411;28;20095;-74
2022/08/04 11:28:35;;;;;;;4.13;1.40;;;28.90;99.90;;;;;;5014540;28;20464;-74
2022/08/04 11:31:11;;;;;;;3.97;1.40;;;28.80;99.90;;;;;;5029059;28;20041;-74
2022/08/04 11:33:47;;;;;;;5.03;1.50;;;28.90;99.90;;;;;;5028319;28;20474;-74
2022/08/04 11:36:34;;;;;;;4.40;1.42;;;28.90;99.90;;;;;;5033614;27;20039;-74
2022/08/04 11:39:22;;;;;;;3.72;1.00;;;28.80;99.90;;;;;;5110505;27;20559;-74
2022/08/04 11:41:51;;;;;;;5.63;1.23;;;29.00;99.90;;;;;;5081902;27;20398;-74
2022/08/04 11:44:46;;;;;;;7.10;1.15;;;28.90;99.90;;;;;;5110702;27;20039;-75
2022/08/04 11:47:34;;;;;;;4.60;1.27;;;29.00;99.90;;;;;;5095481;27;20074;-74
2022/08/04 11:50:16;;;;;;;4.45;1.50;;;29.00;99.90;;;;;;5121253;27;20489;-74
2022/08/04 11:52:44;;;;;;;4.40;1.38;;;29.10;99.90;;;;;;5119161;27;20039;-74
2022/08/04 11:55:13;;;;;;;5.15;1.30;;;29.10;99.90;;;;;;5100168;27;20075;-75
2022/08/04 11:57:39;;;;;;;3.22;1.25;;;29.20;99.90;;;;;;5107721;27;20126;-77
2022/08/04 12:00:11;;;;;;;4.93;1.35;;;29.10;99.90;;;;;;5084894;27;20185;-75
2022/08/04 12:03:16;;;;;;;3.40;1.25;;;28.80;99.90;;;;;;5097192;27;20122;-75
2022/08/04 12:06:05;;;;;;;5.45;1.25;;;28.90;99.90;;;;;;5078430;28;20047;-76
2022/08/04 12:09:02;;;;;;;6.50;1.30;;;28.70;99.90;;;;;;5097322;28;20125;-75
2022/08/04 12:11:32;;;;;;;3.88;1.30;;;28.50;99.90;;;;;;5101750;28;20070;-74
2022/08/04 12:14:24;;;;;;;6.63;1.50;;;28.40;99.90;;;;;;5105566;28;20504;-73
2022/08/04 12:17:00;;;;;;;5.85;1.27;;;28.30;99.90;;;;;;5044404;28;20056;-73
2022/08/04 12:19:29;;;;;;;3.13;1.10;;;28.00;99.90;;;;;;5044881;28;20044;-73
2022/08/04 12:21:58;;;;;;;5.35;1.20;;;28.00;99.90;;;;;;5037417;28;20045;-76
2022/08/04 12:24:54;;;;;;;3.60;1.20;;;27.70;99.90;;;;;;5041984;28;20036;-73
2022/08/04 12:27:27;;;;;;;4.68;1.20;;;27.80;99.90;;;;;;5040375;28;20052;-74
2022/08/04 12:29:54;;;;;;;7.82;1.40;;;27.60;99.90;;;;;;5063440;28;20120;-73
2022/08/04 12:32:29;;;;;;;3.08;1.05;;;27.50;99.90;;;;;;5044641;28;20170;-72
2022/08/04 12:35:17;;;;;;;2.50;1.10;;;27.30;99.90;;;;;;5059819;28;20148;-75
2022/08/04 12:38:10;;;;;;;2.08;0.98;;;27.30;99.90;;;;;;5040088;28;20063;-74
2022/08/04 12:40:38;;;;;;;5.25;1.20;;;27.20;99.90;;;;;;5060038;28;20061;-74
2022/08/04 12:43:16;;;;;;;5.43;1.40;;;27.10;99.90;;;;;;5043477;28;20384;-75
2022/08/04 12:45:55;;;;;;;5.18;1.40;;;27.20;99.90;;;;;;5048897;28;20049;-73
2022/08/04 12:48:22;;;;;;;6.20;1.17;;;27.30;99.90;;;;;;5026498;28;20053;-73
2022/08/04 12:50:54;;;;;;;2.97;1.00;;;27.60;99.90;;;;;;5040399;28;20380;-75
2022/08/04 12:53:41;;;;;;;3.88;1.33;;;27.90;99.90;;;;;;5060826;28;20086;-75
2022/08/04 12:56:13;;;;;;;2.47;0.90;;;28.10;99.90;;;;;;5097151;28;20043;-74
2022/08/04 12:58:45;;;;;;;5.00;1.00;;;28.10;99.90;;;;;;5101007;28;20043;-74
2022/08/04 13:01:23;;;;;;;4.57;0.85;;;28.20;99.90;;;;;;5088038;28;20051;-76
2022/08/04 13:03:55;;;;;;;3.88;1.02;;;28.20;99.90;;;;;;5080979;28;20035;-74
2022/08/04 13:06:31;;;;;;;5.75;1.25;;;28.50;99.90;;;;;;5103980;28;20055;-74
2022/08/04 13:09:06;;;;;;;5.95;1.30;;;28.60;99.90;;;;;;5104192;28;20055;-74
2022/08/04 13:11:40;;;;;;;4.82;1.10;;;28.60;99.80;;;;;;5101107;27;20047;-75
2022/08/04 13:14:08;;;;;;;2.97;0.98;;;28.70;99.90;;;;;;5111990;27;20074;-74
2022/08/04 13:16:34;;;;;;;2.45;1.10;;;28.60;99.90;;;;;;5102526;27;20123;-75
2022/08/04 13:19:08;;;;;;;4.47;1.10;;;28.50;99.90;;;;;;5105960;27;20057;-75
2022/08/04 13:21:39;;;;;;;4.65;0.90;;;28.20;99.90;;;;;;5110491;27;20073;-76
2022/08/04 13:24:13;;;;;;;2.45;1.20;;;28.60;99.90;;;;;;5087032;27;20047;-74
2022/08/04 13:26:51;;;;;;;4.55;1.27;;;28.50;99.90;;;;;;5098916;27;20059;-75
2022/08/04 13:29:18;;;;;;;9.43;1.20;;;28.80;99.90;;;;;;5108916;27;20039;-74
2022/08/04 13:31:45;;;;;;;5.47;1.15;;;29.20;99.90;;;;;;5126325;27;20384;-75